createdAt,value
2023-05-21T00:00:52.712Z,42.10
2023-05-21T00:04:54.239Z,39.13
2023-05-21T00:08:55.813Z,37.30
2023-05-21T00:12:57.371Z,39.78
2023-05-21T00:17:00.511Z,41.00
2023-05-21T00:21:02.130Z,39.15
2023-05-21T00:25:04.232Z,40.22
2023-05-21T00:29:05.953Z,43.50
2023-05-21T00:33:09.002Z,49.05
2023-05-21T00:37:10.575Z,43.33
2023-05-21T00:41:12.492Z,41.83
2023-05-21T00:45:14.390Z,38.72
2023-05-21T00:49:17.325Z,42.08
2023-05-21T00:53:19.276Z,46.13
2023-05-21T00:57:22.838Z,56.17
2023-05-21T01:01:24.454Z,47.50
2023-05-21T01:05:28.000Z,40.30
2023-05-21T01:09:29.554Z,46.72
2023-05-21T01:13:31.459Z,39.83
2023-05-21T01:17:33.291Z,45.65
2023-05-21T01:21:41.260Z,39.05
2023-05-21T01:25:44.359Z,42.55
2023-05-21T01:29:45.931Z,46.85
2023-05-21T01:33:49.797Z,48.50
2023-05-21T01:37:55.403Z,51.75
2023-05-21T01:41:58.954Z,41.97
2023-05-21T01:46:02.169Z,45.05
2023-05-21T01:50:05.252Z,48.25
2023-05-21T01:54:06.798Z,53.35
2023-05-21T01:58:09.664Z,50.17
2023-05-21T02:02:11.393Z,47.45
2023-05-21T02:06:13.125Z,40.45
2023-05-21T02:10:14.643Z,40.47
2023-05-21T02:14:17.572Z,39.88
2023-05-21T02:18:19.087Z,43.17
2023-05-21T02:22:20.602Z,44.03
2023-05-21T02:26:22.161Z,39.58
2023-05-21T02:30:25.093Z,43.13
2023-05-21T02:34:26.729Z,44.40
2023-05-21T02:38:28.392Z,37.33
2023-05-21T02:42:30.252Z,37.58
2023-05-21T02:46:33.265Z,37.88
2023-05-21T02:50:34.829Z,38.38
2023-05-21T02:54:36.378Z,46.08
2023-05-21T02:58:37.995Z,40.50
2023-05-21T03:02:41.028Z,44.15
2023-05-21T03:06:42.836Z,43.47
2023-05-21T03:10:44.362Z,42.70
2023-05-21T03:14:45.889Z,41.15
2023-05-21T03:18:48.767Z,39.80
2023-05-21T03:22:50.302Z,45.45
2023-05-21T03:26:51.820Z,40.95
2023-05-21T03:30:53.676Z,42.42
2023-05-21T03:34:56.572Z,45.53
2023-05-21T03:38:58.109Z,42.13
2023-05-21T03:42:59.618Z,42.33
2023-05-21T03:47:01.130Z,40.20
2023-05-21T03:51:04.246Z,39.85
2023-05-21T03:55:06.525Z,35.10
2023-05-21T03:59:08.052Z,33.80
2023-05-21T04:03:09.676Z,33.80
2023-05-21T04:07:12.874Z,31.65
2023-05-21T04:11:14.420Z,44.83
2023-05-21T04:15:15.962Z,31.63
2023-05-21T04:19:17.568Z,35.00
2023-05-21T04:23:20.545Z,37.13
2023-05-21T04:27:22.192Z,34.63
2023-05-21T04:31:23.781Z,35.58
2023-05-21T04:35:25.340Z,33.97
2023-05-21T04:39:28.269Z,35.05
2023-05-21T04:43:30.027Z,46.78
2023-05-21T04:47:31.563Z,36.03
2023-05-21T04:51:33.115Z,33.55
2023-05-21T04:55:36.199Z,35.03
2023-05-21T04:59:37.847Z,33.05
2023-05-21T05:03:39.433Z,33.78
2023-05-21T05:07:40.968Z,35.55
2023-05-21T05:11:44.326Z,36.80
2023-05-21T05:15:47.541Z,37.03
2023-05-21T05:19:51.037Z,33.65
2023-05-21T05:23:52.750Z,32.92
2023-05-21T05:27:55.663Z,29.35
2023-05-21T05:31:57.225Z,26.20
2023-05-21T05:35:58.773Z,23.77
2023-05-21T05:40:00.383Z,23.95
2023-05-21T05:44:03.571Z,26.02
2023-05-21T05:48:05.689Z,24.15
2023-05-21T05:52:07.332Z,23.67
2023-05-21T05:56:08.857Z,22.50
2023-05-21T06:00:13.136Z,21.50
2023-05-21T06:04:14.712Z,19.95
2023-05-21T06:08:16.240Z,20.73
2023-05-21T06:12:17.789Z,19.50
2023-05-21T06:16:20.716Z,21.65
2023-05-21T06:20:22.289Z,19.63
2023-05-21T06:24:23.815Z,20.13
2023-05-21T06:28:25.364Z,19.73
2023-05-21T06:32:28.318Z,19.67
2023-05-21T06:36:30.136Z,18.42
2023-05-21T06:40:31.868Z,19.98
2023-05-21T06:44:33.377Z,18.13
2023-05-21T06:48:36.255Z,22.45
2023-05-21T06:52:37.812Z,18.95
2023-05-21T06:56:40.068Z,20.15
2023-05-21T07:00:41.605Z,20.33
2023-05-21T07:04:44.492Z,22.27
2023-05-21T07:08:46.158Z,17.65
2023-05-21T07:12:47.688Z,17.70
2023-05-21T07:16:49.334Z,18.73
2023-05-21T07:20:52.314Z,18.85
2023-05-21T07:24:53.866Z,19.40
2023-05-21T07:28:55.378Z,19.00
2023-05-21T07:32:56.997Z,18.92
2023-05-21T07:36:59.952Z,20.75
2023-05-21T07:41:01.520Z,19.33
2023-05-21T07:45:03.277Z,20.17
2023-05-21T07:49:04.814Z,25.98
2023-05-21T07:53:07.795Z,20.65
2023-05-21T07:57:09.414Z,19.23
2023-05-21T08:01:11.221Z,19.30
2023-05-21T08:05:12.877Z,23.88
2023-05-21T08:09:15.827Z,16.63
2023-05-21T08:13:17.499Z,23.80
2023-05-21T08:17:19.037Z,23.98
2023-05-21T08:21:20.616Z,22.27
2023-05-21T08:25:23.785Z,21.42
2023-05-21T08:29:25.350Z,22.75
2023-05-21T08:33:27.473Z,20.77
2023-05-21T08:37:29.112Z,19.98
2023-05-21T08:41:35.203Z,16.88
2023-05-21T08:45:39.226Z,21.52
2023-05-21T08:49:41.166Z,16.98
2023-05-21T08:53:43.157Z,18.67
2023-05-21T08:57:46.050Z,18.45
2023-05-21T09:01:48.475Z,18.63
2023-05-21T09:05:50.474Z,16.83
2023-05-21T09:09:55.562Z,17.88
2023-05-21T09:14:01.176Z,17.88
2023-05-21T09:18:02.802Z,21.00
2023-05-21T09:22:04.805Z,16.77
2023-05-21T09:26:12.689Z,15.98
2023-05-21T09:30:17.297Z,17.95
2023-05-21T09:34:19.083Z,15.57
2023-05-21T09:38:22.382Z,23.45
2023-05-21T09:42:24.017Z,19.98
2023-05-21T09:46:27.487Z,16.88
2023-05-21T09:50:29.058Z,21.88
2023-05-21T09:54:32.144Z,16.08
2023-05-21T09:58:34.401Z,16.42
2023-05-21T10:02:37.923Z,16.35
2023-05-21T10:06:42.979Z,19.67
2023-05-21T10:14:51.214Z,16.15
2023-05-21T10:18:54.961Z,18.25
2023-05-21T10:22:58.097Z,15.93
2023-05-21T10:27:01.485Z,18.17
2023-05-21T10:31:04.133Z,18.30
2023-05-21T10:35:09.159Z,16.77
2023-05-21T10:43:32.480Z,18.60
2023-05-21T10:47:54.308Z,20.52
2023-05-21T10:52:07.362Z,21.85
2023-05-21T10:56:18.133Z,23.75
2023-05-21T11:00:20.610Z,17.85
2023-05-21T11:04:26.300Z,19.15
2023-05-21T11:08:30.417Z,19.02
2023-05-21T11:12:34.513Z,22.25
2023-05-21T11:16:36.135Z,19.05
2023-05-21T11:20:37.803Z,15.02
2023-05-21T11:24:41.886Z,15.50
2023-05-21T11:28:43.462Z,12.70
2023-05-21T11:33:18.406Z,12.07
2023-05-21T11:37:33.839Z,16.42
2023-05-21T11:41:57.186Z,15.10
2023-05-21T11:45:59.296Z,16.25
2023-05-21T11:50:02.897Z,14.23
2023-05-21T11:54:04.572Z,12.23
2023-05-21T11:58:07.686Z,11.40
2023-05-21T12:02:09.233Z,11.77
2023-05-21T12:06:10.901Z,14.40
2023-05-21T12:10:13.322Z,12.93
2023-05-21T12:14:16.413Z,18.73
2023-05-21T12:18:17.989Z,12.40
2023-05-21T12:22:19.977Z,9.63
2023-05-21T12:26:21.784Z,16.15
2023-05-21T12:30:25.348Z,15.55
2023-05-21T12:34:41.143Z,11.18
2023-05-21T12:38:43.022Z,9.90
2023-05-21T12:42:44.804Z,12.32
2023-05-21T12:46:47.904Z,11.73
2023-05-21T12:50:51.663Z,10.90
2023-05-21T12:54:55.010Z,12.27
2023-05-21T12:58:56.539Z,10.40
2023-05-21T13:02:59.833Z,11.35
2023-05-21T13:07:04.262Z,12.38
2023-05-21T13:11:06.493Z,15.57
2023-05-21T13:15:08.650Z,14.20
2023-05-21T13:19:11.613Z,20.15
2023-05-21T13:23:14.243Z,14.82
2023-05-21T13:27:15.808Z,16.00
2023-05-21T13:31:17.364Z,16.08
2023-05-21T13:35:20.496Z,19.67
2023-05-21T13:39:22.032Z,15.13
2023-05-21T13:43:23.684Z,14.30
2023-05-21T13:47:25.412Z,13.57
2023-05-21T13:51:38.608Z,14.88
2023-05-21T13:55:40.840Z,14.02
2023-05-21T13:59:42.523Z,12.85
2023-05-21T14:03:44.101Z,11.25
2023-05-21T14:07:47.315Z,10.43
2023-05-21T14:11:48.939Z,8.20
2023-05-21T14:15:50.484Z,9.27
2023-05-21T14:19:52.033Z,8.25
2023-05-21T14:23:54.973Z,12.18
2023-05-21T14:27:56.915Z,12.25
2023-05-21T14:31:58.554Z,10.80
2023-05-21T14:36:00.466Z,9.52
2023-05-21T14:40:03.917Z,8.38
2023-05-21T14:44:05.624Z,10.63
2023-05-21T14:48:07.242Z,9.45
2023-05-21T14:52:08.800Z,10.93
2023-05-21T14:56:11.731Z,13.20
2023-05-21T15:00:13.933Z,12.30
2023-05-21T15:04:15.585Z,21.15
2023-05-21T15:08:17.187Z,10.15
2023-05-21T15:12:20.077Z,12.25
2023-05-21T15:16:21.786Z,10.85
2023-05-21T15:20:23.399Z,11.05
2023-05-21T15:24:24.938Z,11.10
2023-05-21T15:28:27.818Z,18.05
2023-05-21T15:32:30.443Z,11.30
2023-05-21T15:36:32.006Z,14.13
2023-05-21T15:40:33.564Z,15.25
2023-05-21T15:44:36.445Z,14.10
2023-05-21T15:48:37.997Z,13.05
2023-05-21T15:52:41.687Z,11.02
2023-05-21T15:56:44.550Z,12.80
2023-05-21T16:00:47.578Z,11.88
2023-05-21T16:04:49.333Z,16.73
2023-05-21T16:08:50.911Z,13.63
2023-05-21T16:12:52.474Z,12.95
2023-05-21T16:16:55.575Z,10.20
2023-05-21T16:20:57.330Z,10.50
2023-05-21T16:24:58.938Z,8.98
2023-05-21T16:29:02.278Z,8.35
2023-05-21T16:33:05.612Z,8.73
2023-05-21T16:37:07.156Z,11.70
2023-05-21T16:41:08.741Z,9.77
2023-05-21T16:45:11.020Z,9.35
2023-05-21T16:49:13.892Z,9.70
2023-05-21T16:53:15.455Z,8.43
2023-05-21T16:57:16.995Z,9.38
2023-05-21T17:01:18.618Z,15.68
2023-05-21T17:05:22.163Z,9.35
2023-05-21T17:09:23.711Z,9.95
2023-05-21T17:13:25.235Z,9.82
2023-05-21T17:17:26.975Z,10.48
2023-05-21T17:21:30.355Z,10.20
2023-05-21T17:25:34.323Z,12.65
2023-05-21T17:29:36.216Z,16.60
2023-05-21T17:33:38.115Z,10.85
2023-05-21T17:37:40.987Z,11.20
2023-05-21T17:41:42.594Z,10.73
2023-05-21T17:45:44.180Z,10.02
2023-05-21T17:49:45.752Z,12.90
2023-05-21T17:53:48.674Z,10.73
2023-05-21T17:57:50.210Z,10.88
2023-05-21T18:01:51.766Z,9.13
2023-05-21T18:05:53.334Z,15.90
2023-05-21T18:09:56.345Z,11.23
2023-05-21T18:13:57.906Z,11.20
2023-05-21T18:17:59.553Z,10.80
2023-05-21T18:22:01.080Z,11.25
2023-05-21T18:26:04.341Z,10.95
2023-05-21T18:30:07.144Z,12.38
2023-05-21T18:34:08.749Z,14.15
2023-05-21T18:38:10.445Z,10.55
2023-05-21T18:42:14.457Z,12.15
2023-05-21T18:46:16.156Z,9.82
2023-05-21T18:50:17.895Z,10.25
2023-05-21T18:54:19.421Z,9.93
2023-05-21T18:58:22.311Z,11.27
2023-05-21T19:02:23.903Z,13.32
2023-05-21T19:06:25.515Z,11.02
2023-05-21T19:10:27.078Z,14.02
2023-05-21T19:14:30.459Z,11.15
2023-05-21T19:18:31.982Z,12.05
2023-05-21T19:22:34.258Z,9.95
2023-05-21T19:26:35.864Z,13.30
2023-05-21T19:30:39.049Z,18.08
2023-05-21T19:34:40.817Z,11.77
2023-05-21T19:38:46.160Z,12.02
2023-05-21T19:42:47.698Z,11.27
2023-05-21T19:46:50.578Z,11.88
2023-05-21T19:50:52.438Z,16.00
2023-05-21T19:54:53.966Z,9.75
2023-05-21T19:58:55.519Z,12.82
2023-05-21T20:02:58.425Z,14.07
2023-05-21T20:07:00.111Z,10.23
2023-05-21T20:11:01.734Z,11.82
2023-05-21T20:15:03.795Z,10.75
2023-05-21T20:19:06.696Z,10.73
2023-05-21T20:23:08.694Z,11.77
2023-05-21T20:27:10.314Z,10.93
2023-05-21T20:31:12.158Z,10.57
2023-05-21T20:35:15.216Z,11.80
2023-05-21T20:39:16.749Z,11.60
2023-05-21T20:43:18.497Z,10.73
2023-05-21T20:47:20.155Z,11.57
2023-05-21T20:51:23.037Z,9.55
2023-05-21T20:55:24.582Z,11.38
2023-05-21T20:59:26.391Z,11.15
2023-05-21T21:03:27.969Z,11.02
2023-05-21T21:07:30.917Z,18.08
2023-05-21T21:11:32.467Z,12.57
2023-05-21T21:15:34.026Z,12.23
2023-05-21T21:19:35.550Z,10.10
2023-05-21T21:23:38.440Z,10.80
2023-05-21T21:27:40.298Z,13.30
2023-05-21T21:31:41.906Z,13.88
2023-05-21T21:35:43.482Z,13.43
2023-05-21T21:39:46.355Z,12.05
2023-05-21T21:43:47.961Z,19.17
2023-05-21T21:47:49.631Z,11.55
2023-05-21T21:51:51.265Z,13.80
2023-05-21T21:55:54.178Z,11.68
2023-05-21T21:59:55.693Z,10.73
2023-05-21T22:03:57.223Z,11.77
2023-05-21T22:07:58.741Z,13.90
2023-05-21T22:12:01.633Z,22.45
2023-05-21T22:16:03.265Z,25.13
2023-05-21T22:20:05.871Z,12.02
2023-05-21T22:24:12.718Z,12.20
2023-05-21T22:28:20.639Z,14.23
2023-05-21T22:32:22.163Z,15.40
2023-05-21T22:36:23.704Z,13.68
2023-05-21T22:40:25.252Z,15.15
2023-05-21T22:44:28.221Z,15.25
2023-05-21T22:48:29.735Z,16.73
2023-05-21T22:52:31.355Z,14.30
2023-05-21T22:56:33.395Z,15.65
2023-05-21T23:00:36.719Z,13.65
2023-05-21T23:04:43.719Z,22.67
2023-05-21T23:08:45.701Z,13.38
2023-05-21T23:12:47.239Z,15.02
2023-05-21T23:16:50.161Z,19.70
2023-05-21T23:20:51.792Z,15.77
2023-05-21T23:24:53.374Z,14.27
2023-05-21T23:28:54.931Z,13.07
2023-05-21T23:32:57.872Z,23.60
2023-05-21T23:37:00.495Z,14.93
2023-05-21T23:41:02.289Z,13.52
2023-05-21T23:45:04.279Z,14.93
2023-05-21T23:49:07.213Z,16.92
2023-05-21T23:53:08.737Z,18.00
2023-05-21T23:57:10.306Z,15.52
